Time;durP1;ratioP1;P1;durP2;ratioP2;P2;SDS_P1;SDS_P2;PMS_P1;PMS_P2;Temp;Humidity;BMP_temperature;BMP_pressure;BME280_temperature;BME280_humidity;BME280_pressure;Samples;Min_cycle;Max_cycle;Signal;HPM_P1;HPM_P2
2022/12/06 00:02:07;;;;;;;;;;;;;;;;;;6233156;22;19916;-90
2022/12/06 00:04:33;;;;;;;;;;;;;;;;;;6229952;22;20290;-88
2022/12/06 00:06:59;;;;;;;;;;;;;;;;;;6208134;22;20388;-88
2022/12/06 00:09:25;;;;;;;;;;;;;;;;;;6233958;22;20506;-88
2022/12/06 00:11:51;;;;;;;;;;;;;;;;;;6230128;22;19927;-89
2022/12/06 00:14:17;;;;;;;;;;;;;;;;;;6233646;22;20375;-89
2022/12/06 00:16:43;;;;;;;;;;;;;;;;;;6230358;22;19972;-89
2022/12/06 00:19:09;;;;;;;;;;;;;;;;;;6233580;22;20438;-90
2022/12/06 00:21:35;;;;;;;;;;;;;;;;;;6230933;22;19919;-90
2022/12/06 00:24:01;;;;;;;;;;;;;;;;;;6234639;22;20387;-89
2022/12/06 00:26:27;;;;;;;;;;;;;;;;;;6232036;22;19996;-89
2022/12/06 00:28:53;;;;;;;;;;;;;;;;;;6229562;22;19924;-88
2022/12/06 00:31:19;;;;;;;;;;;;;;;;;;6231898;22;19923;-90
2022/12/06 00:33:45;;;;;;;;;;;;;;;;;;6230793;22;19919;-88
2022/12/06 00:36:11;;;;;;;;;;;;;;;;;;6232896;22;19981;-89
2022/12/06 00:38:37;;;;;;;;;;;;;;;;;;6229933;22;19926;-88
2022/12/06 00:41:03;;;;;;;;;;;;;;;;;;6232122;22;20279;-89
2022/12/06 00:43:29;;;;;;;;;;;;;;;;;;6206934;22;20333;-89
2022/12/06 00:45:55;;;;;;;;;;;;;;;;;;6229452;22;20245;-90
2022/12/06 00:48:21;;;;;;;;;;;;;;;;;;6232097;22;20450;-88
2022/12/06 00:50:47;;;;;;;;;;;;;;;;;;6229228;22;19929;-88
2022/12/06 00:53:13;;;;;;;;;;;;;;;;;;6234148;22;20000;-88
2022/12/06 00:55:39;;;;;;;;;;;;;;;;;;6230019;22;19951;-88
2022/12/06 00:58:05;;;;;;;;;;;;;;;;;;6233242;22;20340;-89
2022/12/06 01:00:31;;;;;;;;;;;;;;;;;;6230724;22;19938;-89
2022/12/06 01:02:57;;;;;;;;;;;;;;;;;;6229227;22;19966;-89
2022/12/06 01:05:23;;;;;;;;;;;;;;;;;;6232938;22;19919;-89
2022/12/06 01:07:49;;;;;;;;;;;;;;;;;;6231627;22;20247;-90
2022/12/06 01:10:15;;;;;;;;;;;;;;;;;;6233092;22;20229;-89
2022/12/06 01:12:41;;;;;;;;;;;;;;;;;;6231134;22;19954;-89
2022/12/06 01:15:07;;;;;;;;;;;;;;;;;;6233680;22;19919;-89
2022/12/06 01:17:33;;;;;;;;;;;;;;;;;;6205729;22;20324;-90
2022/12/06 01:19:59;;;;;;;;;;;;;;;;;;6206242;22;20321;-90
2022/12/06 01:22:25;;;;;;;;;;;;;;;;;;6207651;22;19919;-90
2022/12/06 01:24:51;;;;;;;;;;;;;;;;;;6205885;22;19919;-89
2022/12/06 01:27:17;;;;;;;;;;;;;;;;;;6231013;22;19961;-89
2022/12/06 01:29:43;;;;;;;;;;;;;;;;;;6226560;22;19923;-89
2022/12/06 01:32:09;;;;;;;;;;;;;;;;;;6230422;22;19953;-90
2022/12/06 01:34:35;;;;;;;;;;;;;;;;;;6230418;22;19919;-90
2022/12/06 01:37:01;;;;;;;;;;;;;;;;;;6232738;22;19926;-90
2022/12/06 01:39:26;;;;;;;;;;;;;;;;;;6232444;22;20336;-90
2022/12/06 01:41:52;;;;;;;;;;;;;;;;;;6229016;22;19920;-90
2022/12/06 01:44:18;;;;;;;;;;;;;;;;;;6230205;22;19969;-90
2022/12/06 01:46:44;;;;;;;;;;;;;;;;;;6226800;22;20334;-90
2022/12/06 01:49:10;;;;;;;;;;;;;;;;;;6230702;22;20324;-90
2022/12/06 01:51:36;;;;;;;;;;;;;;;;;;6228972;22;19919;-89
2022/12/06 01:54:02;;;;;;;;;;;;;;;;;;6228356;22;19965;-90
2022/12/06 01:56:28;;;;;;;;;;;;;;;;;;6231067;22;19923;-90
2022/12/06 01:58:57;;;;;;;;;;;;;;;;;;6229540;22;19968;-90
2022/12/06 02:01:23;;;;;;;;;;;;;;;;;;6252615;22;19929;-90
2022/12/06 02:03:49;;;;;;;;;;;;;;;;;;6227794;22;20379;-90
2022/12/06 02:06:16;;;;;;;;;;;;;;;;;;6230223;22;19915;-90
2022/12/06 02:08:42;;;;;;;;;;;;;;;;;;6227039;22;20262;-90
2022/12/06 02:11:08;;;;;;;;;;;;;;;;;;6230244;22;19926;-90
2022/12/06 02:13:34;;;;;;;;;;;;;;;;;;6230013;22;19919;-90
2022/12/06 02:16:00;;;;;;;;;;;;;;;;;;6233367;22;19964;-90
2022/12/06 02:18:26;;;;;;;;;;;;;;;;;;6231325;22;19923;-89
2022/12/06 02:20:52;;;;;;;;;;;;;;;;;;6230050;22;19923;-90
2022/12/06 02:23:18;;;;;;;;;;;;;;;;;;6229404;22;19926;-89
2022/12/06 02:25:44;;;;;;;;;;;;;;;;;;6203577;22;19919;-89
2022/12/06 02:28:10;;;;;;;;;;;;;;;;;;6230996;22;19923;-89
2022/12/06 02:30:35;;;;;;;;;;;;;;;;;;6226371;22;19934;-89
2022/12/06 02:33:03;;;;;;;;;;;;;;;;;;6230568;22;20000;-89
2022/12/06 02:35:32;;;;;;;;;;;;;;;;;;6256137;22;19919;-89
2022/12/06 02:37:58;;;;;;;;;;;;;;;;;;6229024;22;20311;-88
2022/12/06 02:40:24;;;;;;;;;;;;;;;;;;6227922;22;19919;-89
2022/12/06 02:42:50;;;;;;;;;;;;;;;;;;6204245;22;20838;-89
2022/12/06 02:45:15;;;;;;;;;;;;;;;;;;6229803;22;20098;-89
2022/12/06 02:47:41;;;;;;;;;;;;;;;;;;6221275;23;20352;-89
2022/12/06 02:50:07;;;;;;;;;;;;;;;;;;6224714;23;20305;-89
2022/12/06 02:52:33;;;;;;;;;;;;;;;;;;6219615;23;19935;-89
2022/12/06 02:55:00;;;;;;;;;;;;;;;;;;6224216;22;20003;-89
2022/12/06 02:57:26;;;;;;;;;;;;;;;;;;6226738;23;19991;-89
2022/12/06 02:59:52;;;;;;;;;;;;;;;;;;6224309;23;19959;-89
2022/12/06 03:02:17;;;;;;;;;;;;;;;;;;6225854;23;19934;-89
2022/12/06 03:04:48;;;;;;;;;;;;;;;;;;6226948;23;19967;-89
2022/12/06 03:07:14;;;;;;;;;;;;;;;;;;6227748;23;19958;-89
2022/12/06 03:09:40;;;;;;;;;;;;;;;;;;6225642;23;20333;-89
2022/12/06 03:12:06;;;;;;;;;;;;;;;;;;6226050;23;20440;-89
2022/12/06 03:14:32;;;;;;;;;;;;;;;;;;6225225;23;20257;-89
2022/12/06 03:16:58;;;;;;;;;;;;;;;;;;6228003;23;20260;-89
2022/12/06 03:19:24;;;;;;;;;;;;;;;;;;6227887;23;19919;-89
2022/12/06 03:21:50;;;;;;;;;;;;;;;;;;6228726;23;20208;-89
2022/12/06 03:24:15;;;;;;;;;;;;;;;;;;6229901;23;19925;-89
2022/12/06 03:26:41;;;;;;;;;;;;;;;;;;6225077;23;20362;-89
2022/12/06 03:29:07;;;;;;;;;;;;;;;;;;6230904;23;20246;-89
2022/12/06 03:31:33;;;;;;;;;;;;;;;;;;6224700;23;20244;-88
2022/12/06 03:33:59;;;;;;;;;;;;;;;;;;6229979;23;20628;-90
2022/12/06 03:36:25;;;;;;;;;;;;;;;;;;6229057;23;19934;-89
2022/12/06 03:38:51;;;;;;;;;;;;;;;;;;6228574;23;20256;-89
2022/12/06 03:41:17;;;;;;;;;;;;;;;;;;6231048;23;19922;-89
2022/12/06 03:43:43;;;;;;;;;;;;;;;;;;6230809;23;19920;-89
2022/12/06 03:46:09;;;;;;;;;;;;;;;;;;6234831;22;20010;-89
2022/12/06 03:48:35;;;;;;;;;;;;;;;;;;6208064;22;19955;-89
2022/12/06 03:51:01;;;;;;;;;;;;;;;;;;6235661;22;19923;-89
2022/12/06 03:53:27;;;;;;;;;;;;;;;;;;6233311;22;19994;-89
2022/12/06 03:55:53;;;;;;;;;;;;;;;;;;6229936;22;19919;-90
2022/12/06 03:58:19;;;;;;;;;;;;;;;;;;6234678;22;19923;-89
2022/12/06 04:00:45;;;;;;;;;;;;;;;;;;6232203;22;19925;-89
2022/12/06 04:03:11;;;;;;;;;;;;;;;;;;6232843;22;19926;-89
2022/12/06 04:05:37;;;;;;;;;;;;;;;;;;6233142;22;19969;-89
2022/12/06 04:08:03;;;;;;;;;;;;;;;;;;6206994;22;19923;-89
2022/12/06 04:10:32;;;;;;;;;;;;;;;;;;6206296;22;20114;-89
2022/12/06 04:13:01;;;;;;;;;;;;;;;;;;6208387;22;20018;-89
2022/12/06 04:15:27;;;;;;;;;;;;;;;;;;6207934;22;19950;-89
2022/12/06 04:23:22;;;;;;;;;;;;;;;;;;6233268;22;19916;-89
2022/12/06 04:25:48;;;;;;;;;;;;;;;;;;6230844;22;19916;-89
2022/12/06 04:39:13;;;;;;;;;;;;;;;;;;6233320;22;20248;-89
2022/12/06 04:44:24;;;;;;;;;;;;;;;;;;6234077;22;19919;-90
2022/12/06 04:46:50;;;;;;;;;;;;;;;;;;6230192;22;20326;-90
2022/12/06 04:49:16;;;;;;;;;;;;;;;;;;6230738;22;20053;-89
2022/12/06 04:51:42;;;;;;;;;;;;;;;;;;6227480;22;20349;-89
2022/12/06 04:54:08;;;;;;;;;;;;;;;;;;6233218;22;19968;-89
2022/12/06 04:56:33;;;;;;;;;;;;;;;;;;6228912;22;19919;-90
2022/12/06 04:58:59;;;;;;;;;;;;;;;;;;6208937;22;19919;-89
2022/12/06 05:01:25;;;;;;;;;;;;;;;;;;6230110;22;19919;-89
2022/12/06 05:03:51;;;;;;;;;;;;;;;;;;6231913;22;19950;-90
2022/12/06 05:06:17;;;;;;;;;;;;;;;;;;6236046;22;19915;-89
2022/12/06 05:08:43;;;;;;;;;;;;;;;;;;6234807;22;19929;-89
2022/12/06 05:11:09;;;;;;;;;;;;;;;;;;6237874;22;20312;-90
2022/12/06 05:13:35;;;;;;;;;;;;;;;;;;6232237;22;20446;-88
2022/12/06 05:16:01;;;;;;;;;;;;;;;;;;6239137;22;19919;-89
2022/12/06 05:18:27;;;;;;;;;;;;;;;;;;6236498;22;19916;-89
2022/12/06 05:20:53;;;;;;;;;;;;;;;;;;6234310;22;20244;-88
2022/12/06 05:23:19;;;;;;;;;;;;;;;;;;6238241;22;19926;-89
2022/12/06 05:25:45;;;;;;;;;;;;;;;;;;6237084;22;19920;-88
2022/12/06 05:28:11;;;;;;;;;;;;;;;;;;6233726;22;19955;-89
2022/12/06 05:30:37;;;;;;;;;;;;;;;;;;6228475;22;19919;-89
2022/12/06 05:33:03;;;;;;;;;;;;;;;;;;6234367;22;20000;-91
2022/12/06 05:35:32;;;;;;;;;;;;;;;;;;6229164;22;19973;-90
2022/12/06 05:37:57;;;;;;;;;;;;;;;;;;6231090;22;19919;-89
2022/12/06 05:40:23;;;;;;;;;;;;;;;;;;6232809;22;19919;-88
2022/12/06 05:42:49;;;;;;;;;;;;;;;;;;6223891;22;20955;-90
2022/12/06 05:45:15;;;;;;;;;;;;;;;;;;6260745;22;19919;-89
2022/12/06 05:47:41;;;;;;;;;;;;;;;;;;6231194;22;19998;-89
2022/12/06 05:50:07;;;;;;;;;;;;;;;;;;6233484;22;20317;-89
2022/12/06 05:52:33;;;;;;;;;;;;;;;;;;6227175;22;20682;-88
2022/12/06 05:54:59;;;;;;;;;;;;;;;;;;6256427;22;19919;-88
2022/12/06 05:57:25;;;;;;;;;;;;;;;;;;6204205;22;20259;-88
2022/12/06 05:59:51;;;;;;;;;;;;;;;;;;6199095;22;20343;-88
2022/12/06 06:02:17;;;;;;;;;;;;;;;;;;6229274;22;19923;-89
2022/12/06 06:04:43;;;;;;;;;;;;;;;;;;6207749;22;19915;-89
2022/12/06 06:07:09;;;;;;;;;;;;;;;;;;6236453;22;19919;-89
2022/12/06 06:09:35;;;;;;;;;;;;;;;;;;6234338;22;19926;-89
2022/12/06 06:12:01;;;;;;;;;;;;;;;;;;6233712;22;19927;-89
2022/12/06 06:14:27;;;;;;;;;;;;;;;;;;6236398;22;19919;-88
2022/12/06 06:16:53;;;;;;;;;;;;;;;;;;6231677;22;20001;-89
2022/12/06 06:19:22;;;;;;;;;;;;;;;;;;6237020;22;20324;-89
2022/12/06 06:21:48;;;;;;;;;;;;;;;;;;6231659;22;20237;-89
2022/12/06 06:24:14;;;;;;;;;;;;;;;;;;6233733;22;19919;-89
2022/12/06 06:26:40;;;;;;;;;;;;;;;;;;6229763;22;19965;-89
2022/12/06 06:29:05;;;;;;;;;;;;;;;;;;6234874;22;19958;-89
2022/12/06 06:31:31;;;;;;;;;;;;;;;;;;6230620;22;19980;-89
2022/12/06 06:33:57;;;;;;;;;;;;;;;;;;6209521;22;19915;-89
2022/12/06 06:36:23;;;;;;;;;;;;;;;;;;6232468;22;19926;-89
2022/12/06 06:38:49;;;;;;;;;;;;;;;;;;6207705;22;20275;-89
2022/12/06 06:41:15;;;;;;;;;;;;;;;;;;6235437;22;20415;-90
2022/12/06 06:43:41;;;;;;;;;;;;;;;;;;6260102;22;19923;-89
2022/12/06 06:46:07;;;;;;;;;;;;;;;;;;6210090;22;20336;-89
2022/12/06 06:48:33;;;;;;;;;;;;;;;;;;6231816;22;20003;-89
2022/12/06 06:50:59;;;;;;;;;;;;;;;;;;6237516;22;20032;-89
2022/12/06 06:53:26;;;;;;;;;;;;;;;;;;6235849;22;19930;-89
2022/12/06 06:55:52;;;;;;;;;;;;;;;;;;6209060;22;19924;-89
2022/12/06 06:58:18;;;;;;;;;;;;;;;;;;6236651;22;19919;-89
2022/12/06 07:00:44;;;;;;;;;;;;;;;;;;6206384;22;19919;-89
2022/12/06 07:03:10;;;;;;;;;;;;;;;;;;6234766;22;19926;-89
2022/12/06 07:05:36;;;;;;;;;;;;;;;;;;6231349;22;19923;-89
2022/12/06 07:08:03;;;;;;;;;;;;;;;;;;6232434;22;20739;-91
2022/12/06 07:10:32;;;;;;;;;;;;;;;;;;6260821;22;20275;-87
2022/12/06 07:13:01;;;;;;;;;;;;;;;;;;6263629;22;20221;-89
2022/12/06 07:15:34;;;;;;;;;;;;;;;;;;6240600;22;19969;-89
2022/12/06 07:18:00;;;;;;;;;;;;;;;;;;6241076;22;19922;-89
2022/12/06 07:20:26;;;;;;;;;;;;;;;;;;6215457;22;20308;-89
2022/12/06 07:22:52;;;;;;;;;;;;;;;;;;6207895;22;19920;-89
2022/12/06 07:25:21;;;;;;;;;;;;;;;;;;6215274;22;20237;-90
2022/12/06 07:27:50;;;;;;;;;;;;;;;;;;6212775;22;20258;-90
2022/12/06 07:30:16;;;;;;;;;;;;;;;;;;6240395;22;19941;-90
2022/12/06 07:32:42;;;;;;;;;;;;;;;;;;6233973;22;19925;-90
2022/12/06 07:35:17;;;;;;;;;;;;;;;;;;6263620;22;19919;-89
2022/12/06 07:37:43;;;;;;;;;;;;;;;;;;6212898;22;19919;-90
2022/12/06 07:40:09;;;;;;;;;;;;;;;;;;6238886;22;20407;-90
2022/12/06 07:45:35;;;;;;;;;;;;;;;;;;;;;
2022/12/06 07:48:26;;;;;;;;;;;;;;;;;;;;;
2022/12/06 07:50:57;;;;;;;;;;;;;;;;;;6166919;23;19924;-92
2022/12/06 07:53:34;;;;;;;;;;;;;;;;;;6121194;23;19916;-92
2022/12/06 07:56:09;;;;;;;;;;;;;;;;;;6146110;23;20354;-92
2022/12/06 07:58:35;;;;;;;;;;;;;;;;;;6142246;23;19921;-92
2022/12/06 08:01:08;;;;;;;;;;;;;;;;;;6068191;23;19928;-92
2022/12/06 08:03:57;;;;;;;;;;;;;;;;;;;;;
2022/12/06 08:06:28;;;;;;;;;;;;;;;;;;6078717;23;19997;-92
2022/12/06 08:08:54;;;;;;;;;;;;;;;;;;6078603;23;19945;-92
2022/12/06 08:11:21;;;;;;;;;;;;;;;;;;6081824;23;19997;-92
2022/12/06 08:13:47;;;;;;;;;;;;;;;;;;6078740;23;19925;-92
2022/12/06 08:16:13;;;;;;;;;;;;;;;;;;6103503;23;19991;-92
2022/12/06 08:18:39;;;;;;;;;;;;;;;;;;6087150;23;19948;-92
2022/12/06 08:21:05;;;;;;;;;;;;;;;;;;6088580;23;20320;-92
2022/12/06 08:23:31;;;;;;;;;;;;;;;;;;6083974;23;19925;-92
2022/12/06 08:25:57;;;;;;;;;;;;;;;;;;6086180;23;19927;-92
2022/12/06 08:28:24;;;;;;;;;;;;;;;;;;6107259;23;20315;-92
2022/12/06 08:30:50;;;;;;;;;;;;;;;;;;6230596;23;20554;-92
2022/12/06 08:33:16;;;;;;;;;;;;;;;;;;6207850;23;19958;-92
2022/12/06 08:35:42;;;;;;;;;;;;;;;;;;6233052;22;20326;-92
2022/12/06 08:38:08;;;;;;;;;;;;;;;;;;6238044;22;20009;-92
2022/12/06 08:40:34;;;;;;;;;;;;;;;;;;6236560;22;19920;-92
2022/12/06 08:43:00;;;;;;;;;;;;;;;;;;6239898;22;19926;-92
2022/12/06 08:45:26;;;;;;;;;;;;;;;;;;6239605;22;20057;-92
2022/12/06 08:47:52;;;;;;;;;;;;;;;;;;6238117;22;19930;-92
2022/12/06 08:50:18;;;;;;;;;;;;;;;;;;6240656;22;20225;-92
2022/12/06 08:52:44;;;;;;;;;;;;;;;;;;6238744;22;19919;-92
2022/12/06 08:55:10;;;;;;;;;;;;;;;;;;6238527;22;19919;-92
2022/12/06 08:57:36;;;;;;;;;;;;;;;;;;6237505;22;19985;-92
2022/12/06 09:00:02;;;;;;;;;;;;;;;;;;6238844;22;19962;-92
2022/12/06 09:02:28;;;;;;;;;;;;;;;;;;6236531;22;20396;-92
2022/12/06 09:04:54;;;;;;;;;;;;;;;;;;6260138;22;19965;-92
2022/12/06 09:07:22;;;;;;;;;;;;;;;;;;6238891;22;20049;-92
2022/12/06 09:09:48;;;;;;;;;;;;;;;;;;6238011;22;19915;-93
2022/12/06 09:12:14;;;;;;;;;;;;;;;;;;6240059;22;19927;-92
2022/12/06 09:14:40;;;;;;;;;;;;;;;;;;6236984;22;19995;-92
2022/12/06 09:17:06;;;;;;;;;;;;;;;;;;6239088;22;19919;-92
2022/12/06 09:19:33;;;;;;;;;;;;;;;;;;6236060;22;19961;-92
2022/12/06 09:21:59;;;;;;;;;;;;;;;;;;6264313;22;20358;-92
2022/12/06 09:24:25;;;;;;;;;;;;;;;;;;6238932;22;19919;-92
2022/12/06 09:26:51;;;;;;;;;;;;;;;;;;6236201;22;19919;-92
2022/12/06 09:29:17;;;;;;;;;;;;;;;;;;6239662;22;20003;-92
2022/12/06 09:31:43;;;;;;;;;;;;;;;;;;6236222;22;19931;-92
2022/12/06 09:34:09;;;;;;;;;;;;;;;;;;6239961;22;19926;-92
2022/12/06 09:36:35;;;;;;;;;;;;;;;;;;6234950;22;20239;-92
2022/12/06 09:39:01;;;;;;;;;;;;;;;;;;6238383;22;19934;-92
2022/12/06 09:41:26;;;;;;;;;;;;;;;;;;6237948;22;20295;-92
2022/12/06 09:43:53;;;;;;;;;;;;;;;;;;6237453;22;19937;-92
2022/12/06 09:46:19;;;;;;;;;;;;;;;;;;6239170;22;19922;-92
2022/12/06 09:48:45;;;;;;;;;;;;;;;;;;6235845;22;20316;-92
2022/12/06 09:51:11;;;;;;;;;;;;;;;;;;6237312;22;19926;-92
2022/12/06 09:53:37;;;;;;;;;;;;;;;;;;6239858;22;19920;-93
2022/12/06 09:56:03;;;;;;;;;;;;;;;;;;6240050;22;19915;-92
2022/12/06 09:58:32;;;;;;;;;;;;;;;;;;6237704;22;19915;-92
2022/12/06 10:00:58;;;;;;;;;;;;;;;;;;6239990;22;19930;-92
2022/12/06 10:03:24;;;;;;;;;;;;;;;;;;6239156;22;19990;-92
2022/12/06 10:05:53;;;;;;;;;;;;;;;;;;6211162;22;20417;-92
2022/12/06 10:08:19;;;;;;;;;;;;;;;;;;6241255;22;19923;-92
2022/12/06 10:10:45;;;;;;;;;;;;;;;;;;6238695;22;19926;-92
2022/12/06 10:13:10;;;;;;;;;;;;;;;;;;6242796;22;19923;-93
2022/12/06 10:15:36;;;;;;;;;;;;;;;;;;6237640;22;19919;-92
2022/12/06 10:18:03;;;;;;;;;;;;;;;;;;6241736;22;19920;-92
2022/12/06 10:20:32;;;;;;;;;;;;;;;;;;6266050;22;19919;-92
2022/12/06 10:22:58;;;;;;;;;;;;;;;;;;6242315;22;19997;-92
2022/12/06 10:25:24;;;;;;;;;;;;;;;;;;6242234;22;19923;-92
2022/12/06 10:27:50;;;;;;;;;;;;;;;;;;6239162;22;20414;-92
2022/12/06 10:30:16;;;;;;;;;;;;;;;;;;6241488;22;20291;-92
2022/12/06 10:32:42;;;;;;;;;;;;;;;;;;6238597;22;19958;-92
2022/12/06 10:35:08;;;;;;;;;;;;;;;;;;6240662;22;19998;-92
2022/12/06 10:37:33;;;;;;;;;;;;;;;;;;6237514;22;20264;-92
2022/12/06 10:39:59;;;;;;;;;;;;;;;;;;6240635;22;19947;-92
2022/12/06 10:42:25;;;;;;;;;;;;;;;;;;6240808;22;19969;-93
2022/12/06 10:44:51;;;;;;;;;;;;;;;;;;6237246;22;20375;-93
2022/12/06 10:47:17;;;;;;;;;;;;;;;;;;6237572;22;19998;-92
2022/12/06 10:49:43;;;;;;;;;;;;;;;;;;6237377;22;19945;-93
2022/12/06 10:52:09;;;;;;;;;;;;;;;;;;6214721;22;20350;-92
2022/12/06 10:54:35;;;;;;;;;;;;;;;;;;6235528;22;19964;-93
2022/12/06 10:57:01;;;;;;;;;;;;;;;;;;6241271;22;20721;-93
2022/12/06 10:59:27;;;;;;;;;;;;;;;;;;6216192;22;19919;-93
2022/12/06 11:01:53;;;;;;;;;;;;;;;;;;6237575;22;19919;-92
2022/12/06 11:04:19;;;;;;;;;;;;;;;;;;6215931;22;19965;-94
2022/12/06 11:06:45;;;;;;;;;;;;;;;;;;6212951;22;19919;-92
2022/12/06 11:09:11;;;;;;;;;;;;;;;;;;6240200;22;19930;-92
2022/12/06 11:11:37;;;;;;;;;;;;;;;;;;6238129;22;20406;-92
2022/12/06 11:14:03;;;;;;;;;;;;;;;;;;6242235;22;19941;-92
2022/12/06 11:16:32;;;;;;;;;;;;;;;;;;6241494;22;19919;-92
2022/12/06 11:18:58;;;;;;;;;;;;;;;;;;6241396;22;19919;-93
2022/12/06 11:21:24;;;;;;;;;;;;;;;;;;6239707;22;19986;-92
2022/12/06 11:23:50;;;;;;;;;;;;;;;;;;6239044;22;20411;-93
2022/12/06 11:26:18;;;;;;;;;;;;;;;;;;6240244;22;19990;-93
2022/12/06 11:28:44;;;;;;;;;;;;;;;;;;6238367;22;19923;-94
2022/12/06 11:31:10;;;;;;;;;;;;;;;;;;6241518;22;19926;-93
2022/12/06 11:33:36;;;;;;;;;;;;;;;;;;6240715;22;20361;-94
2022/12/06 11:36:02;;;;;;;;;;;;;;;;;;6241002;22;20284;-94
2022/12/06 11:38:28;;;;;;;;;;;;;;;;;;6240039;22;20000;-94
2022/12/06 11:40:54;;;;;;;;;;;;;;;;;;6239407;22;19919;-93
2022/12/06 11:43:19;;;;;;;;;;;;;;;;;;6240771;22;19981;-93
2022/12/06 11:45:45;;;;;;;;;;;;;;;;;;6238026;22;19919;-93
2022/12/06 11:48:11;;;;;;;;;;;;;;;;;;6234857;23;19924;-93
2022/12/06 11:50:37;;;;;;;;;;;;;;;;;;6231754;23;19981;-93
2022/12/06 11:53:03;;;;;;;;;;;;;;;;;;6234318;23;19919;-93
2022/12/06 11:55:29;;;;;;;;;;;;;;;;;;6236885;22;19923;-93
2022/12/06 11:57:55;;;;;;;;;;;;;;;;;;6236612;23;19942;-93
2022/12/06 12:00:22;;;;;;;;;;;;;;;;;;6234712;23;19923;-92
2022/12/06 12:02:48;;;;;;;;;;;;;;;;;;6234104;23;19922;-93
2022/12/06 12:05:14;;;;;;;;;;;;;;;;;;6236655;23;19994;-93
2022/12/06 12:07:40;;;;;;;;;;;;;;;;;;6232744;23;19919;-92
2022/12/06 12:10:05;;;;;;;;;;;;;;;;;;6232579;23;19931;-93
2022/12/06 12:13:42;;;;;;;;;;;;;;;;;;6231253;23;20336;-93
2022/12/06 12:15:17;;;;;;;;;;;;;;;;;;6236665;23;20045;-92
2022/12/06 12:17:43;;;;;;;;;;;;;;;;;;6233379;23;19916;-93
2022/12/06 12:20:09;;;;;;;;;;;;;;;;;;6234963;23;19920;-93
2022/12/06 12:22:35;;;;;;;;;;;;;;;;;;6233946;23;19986;-92
2022/12/06 12:25:01;;;;;;;;;;;;;;;;;;6258490;22;19923;-93
2022/12/06 12:27:27;;;;;;;;;;;;;;;;;;6236257;23;19922;-93
2022/12/06 12:29:53;;;;;;;;;;;;;;;;;;6259325;22;19967;-92
2022/12/06 12:32:19;;;;;;;;;;;;;;;;;;6236068;23;19919;-93
2022/12/06 12:34:45;;;;;;;;;;;;;;;;;;6235778;23;20257;-93
2022/12/06 12:37:11;;;;;;;;;;;;;;;;;;6234803;23;19994;-93
2022/12/06 12:39:37;;;;;;;;;;;;;;;;;;6232212;23;20316;-93
2022/12/06 12:42:03;;;;;;;;;;;;;;;;;;6236310;23;19919;-93
2022/12/06 12:44:32;;;;;;;;;;;;;;;;;;6236013;23;19916;-92
2022/12/06 12:46:58;;;;;;;;;;;;;;;;;;6236064;22;19919;-93
2022/12/06 12:49:24;;;;;;;;;;;;;;;;;;6214812;22;19923;-93
2022/12/06 12:51:50;;;;;;;;;;;;;;;;;;6235573;22;20265;-92
2022/12/06 12:54:16;;;;;;;;;;;;;;;;;;6214637;22;19926;-93
2022/12/06 12:56:42;;;;;;;;;;;;;;;;;;6212521;22;19919;-94
2022/12/06 12:59:08;;;;;;;;;;;;;;;;;;6214790;22;19954;-93
2022/12/06 13:01:36;;;;;;;;;;;;;;;;;;6235030;22;19922;-92
2022/12/06 13:04:02;;;;;;;;;;;;;;;;;;6240594;22;20000;-93
2022/12/06 13:06:28;;;;;;;;;;;;;;;;;;6214967;22;19919;-93
2022/12/06 13:08:54;;;;;;;;;;;;;;;;;;6238761;22;19969;-93
2022/12/06 13:11:20;;;;;;;;;;;;;;;;;;6238638;22;19945;-93
2022/12/06 13:13:46;;;;;;;;;;;;;;;;;;6213388;22;19926;-93
2022/12/06 13:16:12;;;;;;;;;;;;;;;;;;6213799;22;19919;-93
2022/12/06 13:18:38;;;;;;;;;;;;;;;;;;6237708;22;20398;-92
2022/12/06 13:21:04;;;;;;;;;;;;;;;;;;6215194;22;19919;-93
2022/12/06 13:23:30;;;;;;;;;;;;;;;;;;6240399;22;19996;-92
2022/12/06 13:25:56;;;;;;;;;;;;;;;;;;6213405;22;19919;-93
2022/12/06 13:28:22;;;;;;;;;;;;;;;;;;6217441;22;20002;-93
2022/12/06 13:30:48;;;;;;;;;;;;;;;;;;6238226;22;19919;-92
2022/12/06 13:33:14;;;;;;;;;;;;;;;;;;6239854;22;19945;-93
2022/12/06 13:35:40;;;;;;;;;;;;;;;;;;6239100;22;19919;-93
2022/12/06 13:38:06;;;;;;;;;;;;;;;;;;6215064;22;20226;-93
2022/12/06 13:40:32;;;;;;;;;;;;;;;;;;6211533;22;19998;-92
2022/12/06 13:42:58;;;;;;;;;;;;;;;;;;6242329;22;19919;-93
2022/12/06 13:45:24;;;;;;;;;;;;;;;;;;6240590;22;19920;-93
2022/12/06 13:47:50;;;;;;;;;;;;;;;;;;6238666;22;20254;-92
2022/12/06 13:50:16;;;;;;;;;;;;;;;;;;6241441;22;19919;-92
2022/12/06 13:52:42;;;;;;;;;;;;;;;;;;6212531;22;19919;-93
2022/12/06 13:55:08;;;;;;;;;;;;;;;;;;6240801;22;20349;-92
2022/12/06 13:57:34;;;;;;;;;;;;;;;;;;6237034;22;19934;-93
2022/12/06 14:00:00;;;;;;;;;;;;;;;;;;6240862;22;20248;-93
2022/12/06 14:02:26;;;;;;;;;;;;;;;;;;6238737;22;19973;-93
2022/12/06 14:04:52;;;;;;;;;;;;;;;;;;6235991;22;20363;-93
2022/12/06 14:07:18;;;;;;;;;;;;;;;;;;6215156;22;20252;-92
2022/12/06 14:09:44;;;;;;;;;;;;;;;;;;6214498;22;19915;-93
2022/12/06 14:12:09;;;;;;;;;;;;;;;;;;6218114;22;19923;-93
2022/12/06 14:14:35;;;;;;;;;;;;;;;;;;6240681;22;20328;-92
2022/12/06 14:17:01;;;;;;;;;;;;;;;;;;6240086;22;19919;-92
2022/12/06 14:19:27;;;;;;;;;;;;;;;;;;6242528;22;20380;-92
2022/12/06 14:21:54;;;;;;;;;;;;;;;;;;6214096;22;20221;-92
2022/12/06 14:24:20;;;;;;;;;;;;;;;;;;6215661;22;19919;-93
2022/12/06 14:26:46;;;;;;;;;;;;;;;;;;6212266;22;20329;-93
2022/12/06 14:29:12;;;;;;;;;;;;;;;;;;6240841;22;19918;-93
2022/12/06 14:31:38;;;;;;;;;;;;;;;;;;6210401;22;19923;-93
2022/12/06 14:34:04;;;;;;;;;;;;;;;;;;6239533;22;19915;-93
2022/12/06 14:36:30;;;;;;;;;;;;;;;;;;6240883;22;19950;-93
2022/12/06 14:38:56;;;;;;;;;;;;;;;;;;6215642;22;19919;-92
2022/12/06 14:44:07;;;;;;;;;;;;;;;;;;6238952;22;19923;-92
2022/12/06 14:46:33;;;;;;;;;;;;;;;;;;6214078;22;19919;-92
2022/12/06 14:51:44;;;;;;;;;;;;;;;;;;6235348;22;19958;-93
2022/12/06 14:54:10;;;;;;;;;;;;;;;;;;6215674;22;19919;-91
2022/12/06 14:56:36;;;;;;;;;;;;;;;;;;6211115;22;19949;-92
2022/12/06 14:59:02;;;;;;;;;;;;;;;;;;6238566;22;19973;-92
2022/12/06 15:01:27;;;;;;;;;;;;;;;;;;6215187;22;19934;-93
2022/12/06 15:03:53;;;;;;;;;;;;;;;;;;6215391;22;20381;-93
2022/12/06 15:06:20;;;;;;;;;;;;;;;;;;6215831;22;19938;-93
2022/12/06 15:08:46;;;;;;;;;;;;;;;;;;6239797;22;20300;-93
2022/12/06 15:11:12;;;;;;;;;;;;;;;;;;6215157;22;19945;-93
2022/12/06 15:16:39;;;;;;;;;;;;;;;;;;6160050;23;19927;-93
2022/12/06 15:19:05;;;;;;;;;;;;;;;;;;6196834;22;19993;-93
2022/12/06 15:21:32;;;;;;;;;;;;;;;;;;6211652;22;20002;-93
2022/12/06 15:23:57;;;;;;;;;;;;;;;;;;6240565;22;19919;-93
2022/12/06 15:26:23;;;;;;;;;;;;;;;;;;6213111;22;19994;-93
2022/12/06 15:28:49;;;;;;;;;;;;;;;;;;6212053;22;20278;-93
2022/12/06 15:31:16;;;;;;;;;;;;;;;;;;6211682;22;20361;-92
2022/12/06 15:33:42;;;;;;;;;;;;;;;;;;6237866;22;20004;-93
2022/12/06 15:36:09;;;;;;;;;;;;;;;;;;6214232;22;19919;-92
2022/12/06 15:38:35;;;;;;;;;;;;;;;;;;6212088;22;19922;-92
2022/12/06 15:41:01;;;;;;;;;;;;;;;;;;6213921;22;20314;-92
2022/12/06 15:43:30;;;;;;;;;;;;;;;;;;6239498;22;19989;-92
2022/12/06 15:45:57;;;;;;;;;;;;;;;;;;6210133;22;20248;-92
2022/12/06 15:48:22;;;;;;;;;;;;;;;;;;6213404;22;20325;-92
2022/12/06 15:50:48;;;;;;;;;;;;;;;;;;6234846;22;19915;-92
2022/12/06 15:53:14;;;;;;;;;;;;;;;;;;6237645;22;19919;-93
2022/12/06 15:55:41;;;;;;;;;;;;;;;;;;6237518;22;20008;-92
2022/12/06 15:58:07;;;;;;;;;;;;;;;;;;6241770;22;19922;-92
2022/12/06 16:00:33;;;;;;;;;;;;;;;;;;6235701;22;19919;-93
2022/12/06 16:02:59;;;;;;;;;;;;;;;;;;6238882;22;20243;-92
2022/12/06 16:05:24;;;;;;;;;;;;;;;;;;6240665;22;19997;-92
2022/12/06 16:07:50;;;;;;;;;;;;;;;;;;6237266;22;19970;-92
2022/12/06 16:10:16;;;;;;;;;;;;;;;;;;6239763;22;19927;-92
2022/12/06 16:15:27;;;;;;;;;;;;;;;;;;6244186;22;19915;-91
2022/12/06 16:17:53;;;;;;;;;;;;;;;;;;6232624;22;19994;-92
2022/12/06 16:20:32;;;;;;;;;;;;;;;;;;6235206;22;19980;-92
2022/12/06 16:25:42;;;;;;;;;;;;;;;;;;6229695;22;20535;-92
2022/12/06 16:28:08;;;;;;;;;;;;;;;;;;6233935;22;19947;-92
2022/12/06 16:30:34;;;;;;;;;;;;;;;;;;6231936;22;20287;-91
2022/12/06 16:33:00;;;;;;;;;;;;;;;;;;6233806;22;19915;-92
2022/12/06 16:35:26;;;;;;;;;;;;;;;;;;6235181;22;20332;-91
2022/12/06 16:37:52;;;;;;;;;;;;;;;;;;6229492;22;20252;-91
2022/12/06 16:40:18;;;;;;;;;;;;;;;;;;6238668;22;20407;-92
2022/12/06 16:42:44;;;;;;;;;;;;;;;;;;6231838;22;19990;-93
2022/12/06 16:45:10;;;;;;;;;;;;;;;;;;6235774;22;19951;-92
2022/12/06 16:47:36;;;;;;;;;;;;;;;;;;6231831;22;19923;-92
2022/12/06 16:50:02;;;;;;;;;;;;;;;;;;6234721;22;19923;-91
2022/12/06 16:52:28;;;;;;;;;;;;;;;;;;6213041;22;19998;-92
2022/12/06 16:54:54;;;;;;;;;;;;;;;;;;6206535;22;19923;-91
2022/12/06 16:57:20;;;;;;;;;;;;;;;;;;6235067;22;19958;-91
2022/12/06 16:59:46;;;;;;;;;;;;;;;;;;6203089;22;19949;-91
2022/12/06 17:02:12;;;;;;;;;;;;;;;;;;6206009;22;20353;-90
2022/12/06 17:04:38;;;;;;;;;;;;;;;;;;6228156;22;20387;-90
2022/12/06 17:07:16;;;;;;;;;;;;;;;;;;6229299;22;19926;-90
2022/12/06 17:09:48;;;;;;;;;;;;;;;;;;6206627;22;19923;-90
2022/12/06 17:12:14;;;;;;;;;;;;;;;;;;6208672;22;19957;-90
2022/12/06 17:14:40;;;;;;;;;;;;;;;;;;6203908;22;19990;-90
2022/12/06 17:17:06;;;;;;;;;;;;;;;;;;6201208;22;20366;-91
2022/12/06 17:19:32;;;;;;;;;;;;;;;;;;6201068;22;20326;-90